createdAt,value
2024-01-24T00:02:16.000Z,2.77
2024-01-24T00:04:42.933Z,2.80
2024-01-24T00:07:09.783Z,7.10
2024-01-24T00:09:36.846Z,3.07
2024-01-24T00:12:03.974Z,1.30
2024-01-24T00:14:31.025Z,1.73
2024-01-24T00:16:57.828Z,3.47
2024-01-24T00:19:38.866Z,2.63
2024-01-24T00:22:06.255Z,1.20
2024-01-24T00:24:33.654Z,1.73
2024-01-24T00:27:00.644Z,2.20
2024-01-24T00:29:27.315Z,3.43
2024-01-24T00:31:56.847Z,2.37
2024-01-24T00:34:24.184Z,3.60
2024-01-24T00:36:51.438Z,4.50
2024-01-24T00:39:18.505Z,2.90
2024-01-24T00:41:45.437Z,3.70
2024-01-24T00:44:12.284Z,2.43
2024-01-24T00:46:39.114Z,4.43
2024-01-24T00:49:10.085Z,2.03
2024-01-24T00:51:37.688Z,1.30
2024-01-24T00:54:04.711Z,5.00
2024-01-24T00:56:31.622Z,1.00
2024-01-24T00:58:58.412Z,0.67
2024-01-24T01:01:25.316Z,1.70
2024-01-24T01:03:52.202Z,1.50
2024-01-24T01:06:19.138Z,1.63
2024-01-24T01:08:46.557Z,1.80
2024-01-24T01:11:13.507Z,0.90
2024-01-24T01:13:40.296Z,1.93
2024-01-24T01:16:07.451Z,2.10
2024-01-24T01:18:34.318Z,1.03
2024-01-24T01:21:01.261Z,1.30
2024-01-24T01:23:28.205Z,0.77
2024-01-24T01:25:55.219Z,1.33
2024-01-24T01:28:22.133Z,2.80
2024-01-24T01:30:49.125Z,1.47
2024-01-24T01:33:16.213Z,1.63
2024-01-24T01:35:45.846Z,1.33
2024-01-24T01:38:15.141Z,2.33
2024-01-24T01:40:42.274Z,3.57
2024-01-24T01:43:14.779Z,1.80
2024-01-24T01:45:44.751Z,0.90
2024-01-24T01:48:12.596Z,0.90
2024-01-24T01:50:39.789Z,0.90
2024-01-24T01:53:07.436Z,2.73
2024-01-24T01:55:35.469Z,2.20
2024-01-24T01:58:02.891Z,2.33
2024-01-24T02:00:29.796Z,1.47
2024-01-24T02:02:56.951Z,0.97
2024-01-24T02:05:24.313Z,3.43
2024-01-24T02:07:51.911Z,3.20
2024-01-24T02:10:18.847Z,0.80
2024-01-24T02:12:45.737Z,1.13
2024-01-24T02:15:12.927Z,0.60
2024-01-24T02:17:40.091Z,1.37
2024-01-24T02:20:11.106Z,0.70
2024-01-24T02:22:38.272Z,3.13
2024-01-24T02:25:06.158Z,0.50
2024-01-24T02:27:33.171Z,2.10
2024-01-24T02:30:00.269Z,0.73
2024-01-24T02:32:27.204Z,1.50
2024-01-24T02:34:54.121Z,0.50
2024-01-24T02:37:21.997Z,0.30
2024-01-24T02:39:49.036Z,1.30
2024-01-24T02:42:16.198Z,0.50
2024-01-24T02:44:43.125Z,0.50
2024-01-24T02:47:10.802Z,1.00
2024-01-24T02:49:37.818Z,0.63
2024-01-24T02:52:05.091Z,0.30
2024-01-24T02:54:32.205Z,0.40
2024-01-24T02:56:59.188Z,0.13
2024-01-24T02:59:26.962Z,1.03
2024-01-24T03:01:54.004Z,0.40
2024-01-24T03:04:21.237Z,1.40
2024-01-24T03:06:48.372Z,0.50
2024-01-24T03:09:15.476Z,1.47
2024-01-24T03:11:42.862Z,0.53
2024-01-24T03:14:10.701Z,0.10
2024-01-24T03:16:37.571Z,0.47
2024-01-24T03:19:06.785Z,0.30
2024-01-24T03:21:34.116Z,0.10
2024-01-24T03:24:01.466Z,1.23
2024-01-24T03:26:28.487Z,0.47
2024-01-24T03:28:55.424Z,0.20
2024-01-24T03:31:22.215Z,0.30
2024-01-24T03:33:49.165Z,0.27
2024-01-24T03:36:16.160Z,0.70
2024-01-24T03:38:45.802Z,0.57
2024-01-24T03:41:12.713Z,0.37
2024-01-24T03:43:40.812Z,1.60
2024-01-24T03:46:08.274Z,0.83
2024-01-24T03:48:35.094Z,1.50
2024-01-24T03:51:02.171Z,0.50
2024-01-24T03:53:28.961Z,0.57
2024-01-24T03:55:55.811Z,0.30
2024-01-24T03:58:23.022Z,1.10
2024-01-24T04:00:51.738Z,0.40
2024-01-24T04:03:18.664Z,2.63
2024-01-24T04:05:45.598Z,4.83
2024-01-24T04:08:12.311Z,3.60
2024-01-24T04:10:39.131Z,2.73
2024-01-24T04:13:05.854Z,6.37
2024-01-24T04:15:33.138Z,3.10
2024-01-24T04:18:00.477Z,2.20
2024-01-24T04:20:28.218Z,2.80
2024-01-24T04:22:55.012Z,4.37
2024-01-24T04:25:22.027Z,3.93
2024-01-24T04:27:48.943Z,9.37
2024-01-24T04:30:16.768Z,6.50
2024-01-24T04:32:43.852Z,9.47
2024-01-24T04:35:11.556Z,11.83
2024-01-24T04:37:38.326Z,4.27
2024-01-24T04:40:06.174Z,8.37
2024-01-24T04:42:32.980Z,11.27
2024-01-24T04:45:00.116Z,16.53
2024-01-24T04:47:27.078Z,14.63
2024-01-24T04:49:54.379Z,17.87
2024-01-24T04:52:21.392Z,16.60
2024-01-24T04:54:48.483Z,14.57
2024-01-24T04:57:15.660Z,12.27
2024-01-24T04:59:49.929Z,12.13
2024-01-24T05:02:23.409Z,18.00
2024-01-24T05:04:50.635Z,16.07
2024-01-24T05:07:17.831Z,14.87
2024-01-24T05:09:45.001Z,21.40
2024-01-24T05:12:12.246Z,16.33
2024-01-24T05:14:39.066Z,16.20
2024-01-24T05:17:06.167Z,19.13
2024-01-24T05:19:33.917Z,24.37
2024-01-24T05:22:01.273Z,16.93
2024-01-24T05:24:28.304Z,26.23
2024-01-24T05:26:56.875Z,27.80
2024-01-24T05:29:23.676Z,23.87
2024-01-24T05:31:50.576Z,20.07
2024-01-24T05:34:17.402Z,23.37
2024-01-24T05:36:44.527Z,26.23
2024-01-24T05:39:11.423Z,28.70
2024-01-24T05:41:38.286Z,24.73
2024-01-24T05:44:05.264Z,21.90
2024-01-24T05:46:32.306Z,25.10
2024-01-24T05:49:01.806Z,23.43
2024-01-24T05:51:29.233Z,27.73
2024-01-24T05:53:56.045Z,32.87
2024-01-24T05:56:22.900Z,26.87
2024-01-24T05:58:49.697Z,19.57
2024-01-24T06:01:16.792Z,21.00
2024-01-24T06:03:43.821Z,32.90
2024-01-24T06:06:10.949Z,27.77
2024-01-24T06:08:40.120Z,19.60
2024-01-24T06:11:07.269Z,27.30
2024-01-24T06:13:34.094Z,30.10
2024-01-24T06:16:01.145Z,22.30
2024-01-24T06:18:28.217Z,30.50
2024-01-24T06:20:55.130Z,30.10
2024-01-24T06:23:21.917Z,29.80
2024-01-24T06:25:48.956Z,38.13
2024-01-24T06:28:16.374Z,36.73
2024-01-24T06:30:43.213Z,33.40
2024-01-24T06:33:10.698Z,30.47
2024-01-24T06:35:37.861Z,31.67
2024-01-24T06:38:04.995Z,31.43
2024-01-24T06:40:32.330Z,31.57
2024-01-24T06:42:59.896Z,38.87
2024-01-24T06:45:27.299Z,45.63
2024-01-24T06:47:54.469Z,40.53
2024-01-24T06:50:21.388Z,35.07
2024-01-24T06:52:48.228Z,40.77
2024-01-24T06:55:17.667Z,26.03
2024-01-24T06:57:45.565Z,25.83
2024-01-24T07:00:13.538Z,35.00
2024-01-24T07:02:40.590Z,39.30
2024-01-24T07:05:08.360Z,33.73
2024-01-24T07:07:35.420Z,34.77
2024-01-24T07:10:02.397Z,30.13
2024-01-24T07:12:29.294Z,24.20
2024-01-24T07:14:56.826Z,34.33
2024-01-24T07:17:24.857Z,34.07
2024-01-24T07:19:52.754Z,39.30
2024-01-24T07:22:19.703Z,38.17
2024-01-24T07:24:46.899Z,31.07
2024-01-24T07:27:13.827Z,36.53
2024-01-24T07:29:40.652Z,29.43
2024-01-24T07:32:07.705Z,35.70
2024-01-24T07:34:34.871Z,32.83
2024-01-24T07:37:02.060Z,36.83
2024-01-24T07:39:30.012Z,38.77
2024-01-24T07:41:57.569Z,37.83
2024-01-24T07:44:24.907Z,33.60
2024-01-24T07:46:52.067Z,41.73
2024-01-24T07:49:19.549Z,37.50
2024-01-24T07:51:48.315Z,31.67
2024-01-24T07:54:20.372Z,38.77
2024-01-24T07:56:48.070Z,31.90
2024-01-24T07:59:17.684Z,46.63
2024-01-24T08:01:49.689Z,38.50
2024-01-24T08:04:19.005Z,39.10
2024-01-24T08:06:48.839Z,31.40
2024-01-24T08:09:16.206Z,35.23
2024-01-24T08:11:43.216Z,41.30
2024-01-24T08:14:10.868Z,36.23
2024-01-24T08:16:37.811Z,41.43
2024-01-24T08:19:04.879Z,38.97
2024-01-24T08:21:32.034Z,39.93
2024-01-24T08:23:59.189Z,27.50
2024-01-24T08:26:26.135Z,40.57
2024-01-24T08:28:53.972Z,39.17
2024-01-24T08:31:20.991Z,41.23
2024-01-24T08:33:51.547Z,27.80
2024-01-24T08:36:20.527Z,32.97
2024-01-24T08:38:47.540Z,35.73
2024-01-24T08:41:14.740Z,39.70
2024-01-24T08:43:42.360Z,44.60
2024-01-24T08:46:09.334Z,38.03
2024-01-24T08:48:36.443Z,40.23
2024-01-24T08:51:03.790Z,44.90
2024-01-24T08:53:30.800Z,38.07
2024-01-24T08:55:57.796Z,33.93
2024-01-24T08:58:24.641Z,39.90
2024-01-24T09:00:52.687Z,39.30
2024-01-24T09:03:20.652Z,44.37
2024-01-24T09:05:48.105Z,46.67
2024-01-24T09:08:16.519Z,43.23
2024-01-24T09:10:43.825Z,52.63
2024-01-24T09:13:11.081Z,39.13
2024-01-24T09:15:38.303Z,37.60
2024-01-24T09:18:05.663Z,32.90
2024-01-24T09:20:32.712Z,31.27
2024-01-24T09:22:59.701Z,48.40
2024-01-24T09:25:26.899Z,36.83
2024-01-24T09:27:55.235Z,40.63
2024-01-24T09:30:22.587Z,39.30
2024-01-24T09:32:49.644Z,45.10
2024-01-24T09:35:17.741Z,40.50
2024-01-24T09:37:50.222Z,49.67
2024-01-24T09:40:18.007Z,44.77
2024-01-24T09:42:45.779Z,42.93
2024-01-24T09:45:19.456Z,48.13
2024-01-24T09:47:50.836Z,52.40
2024-01-24T09:50:18.287Z,29.53
2024-01-24T09:52:47.523Z,35.20
2024-01-24T09:55:17.798Z,50.07
2024-01-24T09:57:46.020Z,40.77
2024-01-24T10:00:15.758Z,39.57
2024-01-24T10:02:47.251Z,47.70
2024-01-24T10:05:17.956Z,57.30
2024-01-24T10:07:45.150Z,39.13
2024-01-24T10:10:16.973Z,45.67
2024-01-24T10:12:44.595Z,39.73
2024-01-24T10:15:12.245Z,49.57
2024-01-24T10:17:43.580Z,46.13
2024-01-24T10:20:13.135Z,34.60
2024-01-24T10:22:40.866Z,46.13
2024-01-24T10:25:11.041Z,44.57
2024-01-24T10:27:39.720Z,37.67
2024-01-24T10:30:11.559Z,48.53
2024-01-24T10:32:39.112Z,38.43
2024-01-24T10:35:06.855Z,47.20
2024-01-24T10:37:34.422Z,46.00
2024-01-24T10:40:13.056Z,40.80
2024-01-24T10:42:42.404Z,39.73
2024-01-24T10:45:10.316Z,59.33
2024-01-24T10:47:37.709Z,48.00
2024-01-24T10:50:07.538Z,47.93
2024-01-24T10:52:35.087Z,45.90
2024-01-24T10:55:06.627Z,52.73
2024-01-24T10:57:36.653Z,44.77
2024-01-24T11:00:07.433Z,42.87
2024-01-24T11:02:35.413Z,43.17
2024-01-24T11:05:05.135Z,42.47
2024-01-24T11:07:39.368Z,31.83
2024-01-24T11:10:42.053Z,38.07
2024-01-24T11:13:09.659Z,29.20
2024-01-24T11:15:36.620Z,36.07
2024-01-24T11:18:20.788Z,36.87
2024-01-24T11:20:49.144Z,39.33
2024-01-24T11:24:03.983Z,39.70
2024-01-24T11:26:30.885Z,34.17
2024-01-24T11:29:17.753Z,34.60
2024-01-24T11:31:45.669Z,39.23
2024-01-24T11:34:13.526Z,39.90
2024-01-24T11:36:52.549Z,38.20
2024-01-24T11:39:32.012Z,46.53
2024-01-24T11:42:23.842Z,38.20
2024-01-24T11:44:51.596Z,37.13
2024-01-24T11:47:18.456Z,35.33
2024-01-24T11:49:52.451Z,37.83
2024-01-24T11:52:22.680Z,35.43
2024-01-24T11:54:56.109Z,38.57
2024-01-24T11:57:23.335Z,41.90
2024-01-24T11:59:50.259Z,42.67
2024-01-24T12:02:17.263Z,33.97
2024-01-24T12:04:44.285Z,47.27
2024-01-24T12:07:11.388Z,35.47
2024-01-24T12:09:38.235Z,37.73
2024-01-24T12:12:05.658Z,33.77
2024-01-24T12:14:32.880Z,31.07
2024-01-24T12:17:00.404Z,31.57
2024-01-24T12:19:33.232Z,33.30
2024-01-24T12:22:00.298Z,31.53
2024-01-24T12:24:30.493Z,32.40
2024-01-24T12:27:00.215Z,36.37
2024-01-24T12:29:28.900Z,29.63
2024-01-24T12:32:01.320Z,33.47
2024-01-24T12:34:31.757Z,31.27
2024-01-24T12:36:59.723Z,32.90
2024-01-24T12:39:33.266Z,32.80
2024-01-24T12:42:02.094Z,33.67
2024-01-24T12:44:30.310Z,30.77
2024-01-24T12:46:58.227Z,36.33
2024-01-24T12:49:26.118Z,41.43
2024-01-24T12:51:54.890Z,25.80
2024-01-24T12:54:23.015Z,47.13
2024-01-24T12:56:51.269Z,45.00
2024-01-24T12:59:19.326Z,32.63
2024-01-24T13:01:46.555Z,26.93
2024-01-24T13:04:13.890Z,20.63
2024-01-24T13:06:41.662Z,30.53
2024-01-24T13:09:09.819Z,38.03
2024-01-24T13:11:37.036Z,29.00
2024-01-24T13:14:04.694Z,23.70
2024-01-24T13:16:32.048Z,25.20
2024-01-24T13:18:59.066Z,30.47
2024-01-24T13:21:26.139Z,33.13
2024-01-24T13:23:53.218Z,38.93
2024-01-24T13:26:21.309Z,36.20
2024-01-24T13:28:48.200Z,35.63
2024-01-24T13:31:15.354Z,26.33
2024-01-24T13:33:45.376Z,28.73
2024-01-24T13:36:12.585Z,33.80
2024-01-24T13:38:40.561Z,28.73
2024-01-24T13:41:08.013Z,21.47
2024-01-24T13:43:35.081Z,30.57
2024-01-24T13:46:02.034Z,27.40
2024-01-24T13:48:29.227Z,22.83
2024-01-24T13:51:04.319Z,27.73
2024-01-24T13:53:31.772Z,25.27
2024-01-24T13:55:59.023Z,32.57
2024-01-24T13:58:27.105Z,25.90
2024-01-24T14:00:54.866Z,25.03
2024-01-24T14:03:22.253Z,33.47
2024-01-24T14:05:49.945Z,25.20
2024-01-24T14:08:19.999Z,38.20
2024-01-24T14:10:47.038Z,24.43
2024-01-24T14:13:16.268Z,27.20
2024-01-24T14:15:44.440Z,25.63
2024-01-24T14:18:13.199Z,35.77
2024-01-24T14:20:40.864Z,25.97
2024-01-24T14:23:08.457Z,26.63
2024-01-24T14:25:35.515Z,31.50
2024-01-24T14:28:02.631Z,27.63
2024-01-24T14:30:30.002Z,33.70
2024-01-24T14:32:57.549Z,40.53
2024-01-24T14:35:24.954Z,34.97
2024-01-24T14:37:52.092Z,29.43
2024-01-24T14:40:19.383Z,29.77
2024-01-24T14:42:46.400Z,38.90
2024-01-24T14:45:14.407Z,40.00
2024-01-24T14:47:42.211Z,38.63
2024-01-24T14:50:22.194Z,36.63
2024-01-24T14:52:50.597Z,29.50
2024-01-24T14:55:18.446Z,36.17
2024-01-24T14:57:45.711Z,39.30
2024-01-24T15:00:13.853Z,37.77
2024-01-24T15:02:40.940Z,34.30
2024-01-24T15:05:09.737Z,46.20
2024-01-24T15:07:40.109Z,30.57
2024-01-24T15:10:09.005Z,41.43
2024-01-24T15:12:37.896Z,44.67
2024-01-24T15:15:08.791Z,39.67
2024-01-24T15:17:36.049Z,43.43
2024-01-24T15:20:04.935Z,37.73
2024-01-24T15:22:33.173Z,28.83
2024-01-24T15:25:01.819Z,34.07
2024-01-24T15:27:29.409Z,37.57
2024-01-24T15:29:56.730Z,32.17
2024-01-24T15:32:23.748Z,37.50
2024-01-24T15:34:50.899Z,34.70
2024-01-24T15:37:18.639Z,28.87
2024-01-24T15:39:45.783Z,49.27
2024-01-24T15:42:13.900Z,32.60
2024-01-24T15:44:40.795Z,35.73
2024-01-24T15:47:09.147Z,42.07
2024-01-24T15:49:38.327Z,36.83
2024-01-24T15:52:06.063Z,34.53
2024-01-24T15:54:35.013Z,43.83
2024-01-24T15:57:02.832Z,39.90
2024-01-24T15:59:29.815Z,38.40
2024-01-24T16:01:57.017Z,47.70
2024-01-24T16:04:23.990Z,39.33
2024-01-24T16:06:51.194Z,45.13
2024-01-24T16:09:18.525Z,37.03
2024-01-24T16:11:45.493Z,39.23
2024-01-24T16:14:15.546Z,54.43
2024-01-24T16:16:45.788Z,39.23
2024-01-24T16:19:13.110Z,44.00
2024-01-24T16:21:44.695Z,34.93
2024-01-24T16:24:11.765Z,35.50
2024-01-24T16:26:38.689Z,42.10
2024-01-24T16:29:05.760Z,37.13
2024-01-24T16:31:32.814Z,39.63
2024-01-24T16:34:00.020Z,35.30
2024-01-24T16:36:27.615Z,39.37
2024-01-24T16:38:54.970Z,32.83
2024-01-24T16:41:21.896Z,32.53
2024-01-24T16:43:50.042Z,49.20
2024-01-24T16:46:20.690Z,39.07
2024-01-24T16:48:47.744Z,42.63
2024-01-24T16:51:14.720Z,31.33
2024-01-24T16:53:41.706Z,40.97
2024-01-24T16:56:11.558Z,40.53
2024-01-24T16:58:40.808Z,38.80
2024-01-24T17:01:07.958Z,31.50
2024-01-24T17:03:35.027Z,35.83
2024-01-24T17:06:08.603Z,35.17
2024-01-24T17:08:35.923Z,42.47
2024-01-24T17:11:03.406Z,41.53
2024-01-24T17:13:30.394Z,37.63
2024-01-24T17:15:57.570Z,42.57
2024-01-24T17:18:27.369Z,33.37
2024-01-24T17:20:55.154Z,52.17
2024-01-24T17:23:22.072Z,41.07
2024-01-24T17:25:49.539Z,37.30
2024-01-24T17:28:17.177Z,35.27
2024-01-24T17:30:44.685Z,35.57
2024-01-24T17:33:11.566Z,34.03
2024-01-24T17:35:38.749Z,37.10
2024-01-24T17:38:05.729Z,39.47
2024-01-24T17:40:32.513Z,37.27
2024-01-24T17:43:01.321Z,34.97
2024-01-24T17:45:28.294Z,33.57
2024-01-24T17:47:56.914Z,39.47
2024-01-24T17:50:24.080Z,41.17
2024-01-24T17:52:51.404Z,31.23
2024-01-24T17:55:28.637Z,30.90
2024-01-24T17:57:58.297Z,40.00
2024-01-24T18:00:25.395Z,43.57
2024-01-24T18:02:52.415Z,34.83
2024-01-24T18:05:19.940Z,34.50
2024-01-24T18:07:47.492Z,36.67
2024-01-24T18:10:14.600Z,48.43
2024-01-24T18:12:41.811Z,39.10
2024-01-24T18:15:09.034Z,47.17
2024-01-24T18:17:38.362Z,38.20
2024-01-24T18:20:07.130Z,32.00
2024-01-24T18:22:33.934Z,35.43
2024-01-24T18:25:00.946Z,32.63
2024-01-24T18:27:27.881Z,34.73
2024-01-24T18:29:54.766Z,34.30
2024-01-24T18:32:21.546Z,33.23
2024-01-24T18:34:49.069Z,38.50
2024-01-24T18:37:16.382Z,40.27
2024-01-24T18:39:43.562Z,30.73
2024-01-24T18:42:10.720Z,37.50
2024-01-24T18:44:41.358Z,37.37
2024-01-24T18:47:08.915Z,39.03
2024-01-24T18:49:36.443Z,41.80
2024-01-24T18:52:03.851Z,35.53
2024-01-24T18:54:31.007Z,39.87
2024-01-24T18:56:57.975Z,34.90
2024-01-24T18:59:25.289Z,35.33
2024-01-24T19:01:52.595Z,38.37
2024-01-24T19:04:19.962Z,42.60
2024-01-24T19:06:47.697Z,41.47
2024-01-24T19:09:14.993Z,32.93
2024-01-24T19:11:41.904Z,44.50
2024-01-24T19:14:08.932Z,42.57
2024-01-24T19:16:36.141Z,39.13
2024-01-24T19:19:03.693Z,33.73
2024-01-24T19:21:31.012Z,44.60
2024-01-24T19:23:58.806Z,39.63
2024-01-24T19:26:26.654Z,43.73
2024-01-24T19:28:53.611Z,43.07
2024-01-24T19:31:20.712Z,42.10
2024-01-24T19:33:52.396Z,41.70
2024-01-24T19:36:20.888Z,42.43
2024-01-24T19:38:48.253Z,46.90
2024-01-24T19:41:15.254Z,43.20
2024-01-24T19:43:42.261Z,32.90
2024-01-24T19:46:09.546Z,38.70
2024-01-24T19:48:36.557Z,34.87
2024-01-24T19:51:03.678Z,38.37
2024-01-24T19:53:33.883Z,33.57
2024-01-24T19:56:02.312Z,44.87
2024-01-24T19:58:29.836Z,42.20
2024-01-24T20:00:57.261Z,50.03
2024-01-24T20:03:24.298Z,38.67
2024-01-24T20:05:51.351Z,40.90
2024-01-24T20:08:18.561Z,41.67
2024-01-24T20:10:49.081Z,52.03
2024-01-24T20:13:16.710Z,45.37
2024-01-24T20:15:47.649Z,38.63
2024-01-24T20:18:19.207Z,47.87
2024-01-24T20:20:46.853Z,49.40
2024-01-24T20:23:13.739Z,46.23
2024-01-24T20:25:40.861Z,40.97
2024-01-24T20:28:07.786Z,53.97
2024-01-24T20:30:34.868Z,54.93
2024-01-24T20:33:05.065Z,37.73
2024-01-24T20:35:33.037Z,46.97
2024-01-24T20:38:00.459Z,42.20
2024-01-24T20:40:27.505Z,39.17
2024-01-24T20:42:54.625Z,54.07
2024-01-24T20:45:21.652Z,46.33
2024-01-24T20:47:50.614Z,38.60
2024-01-24T20:50:22.275Z,33.13
2024-01-24T20:52:51.095Z,51.07
2024-01-24T20:55:23.906Z,49.40
2024-01-24T20:57:51.824Z,48.80
2024-01-24T21:00:20.766Z,48.17
2024-01-24T21:02:48.001Z,47.27
2024-01-24T21:05:15.879Z,43.13
2024-01-24T21:07:43.021Z,41.20
2024-01-24T21:10:10.851Z,41.67
2024-01-24T21:12:38.131Z,38.43
2024-01-24T21:15:05.484Z,43.77
2024-01-24T21:17:33.676Z,43.80
2024-01-24T21:20:00.718Z,40.37
2024-01-24T21:22:30.809Z,40.17
2024-01-24T21:24:57.851Z,49.03
2024-01-24T21:27:24.784Z,43.57
2024-01-24T21:29:51.637Z,50.97
2024-01-24T21:32:18.354Z,39.33
2024-01-24T21:34:45.398Z,49.57
2024-01-24T21:40:28.292Z,37.63
2024-01-24T21:42:55.250Z,53.27
2024-01-24T21:45:22.604Z,53.27
2024-01-24T21:47:49.738Z,54.40
2024-01-24T21:50:17.273Z,48.67
2024-01-24T21:52:44.306Z,46.67
2024-01-24T21:55:11.169Z,40.57
2024-01-24T21:57:39.065Z,47.03
2024-01-24T22:00:07.627Z,45.60
2024-01-24T22:02:35.217Z,65.17
2024-01-24T22:05:02.169Z,46.60
2024-01-24T22:07:32.208Z,42.70
2024-01-24T22:09:59.279Z,40.60
2024-01-24T22:12:26.331Z,37.57
2024-01-24T22:14:53.424Z,38.77
2024-01-24T22:17:20.466Z,62.90
2024-01-24T22:19:47.554Z,45.30
2024-01-24T22:22:14.476Z,61.13
2024-01-24T22:24:41.323Z,48.10
2024-01-24T22:27:08.202Z,38.57
2024-01-24T22:29:35.176Z,42.67
2024-01-24T22:32:03.837Z,53.17
2024-01-24T22:34:30.946Z,46.27
2024-01-24T22:36:58.032Z,56.30
2024-01-24T22:39:24.812Z,50.00
2024-01-24T22:41:51.711Z,42.57
2024-01-24T22:44:20.394Z,47.87
2024-01-24T22:46:48.414Z,57.77
2024-01-24T22:49:15.713Z,41.37
2024-01-24T22:51:42.847Z,50.90
2024-01-24T22:54:09.966Z,51.57
2024-01-24T22:56:36.912Z,50.60
2024-01-24T22:59:03.725Z,40.17
2024-01-24T23:01:30.951Z,46.67
2024-01-24T23:04:09.852Z,52.50
2024-01-24T23:06:37.146Z,48.53
2024-01-24T23:09:05.364Z,42.93
2024-01-24T23:11:32.563Z,56.10
2024-01-24T23:13:59.567Z,55.97
2024-01-24T23:16:26.442Z,48.27
2024-01-24T23:18:55.551Z,47.50
2024-01-24T23:21:26.872Z,48.17
2024-01-24T23:23:53.948Z,56.37
2024-01-24T23:26:20.692Z,45.97
2024-01-24T23:28:48.249Z,47.20
2024-01-24T23:31:15.292Z,44.80
2024-01-24T23:33:42.375Z,46.13
2024-01-24T23:36:10.227Z,42.33
2024-01-24T23:38:37.099Z,45.93
2024-01-24T23:41:04.039Z,49.47
2024-01-24T23:43:30.962Z,41.43
2024-01-24T23:45:57.713Z,50.00
2024-01-24T23:48:25.026Z,41.50
2024-01-24T23:50:52.078Z,38.83
2024-01-24T23:53:19.229Z,46.43
2024-01-24T23:55:47.438Z,46.13
2024-01-24T23:58:14.537Z,53.77
